createdAt,value
2018-07-30T00:00:27.580Z,95520.6
2018-07-30T00:01:29.755Z,95518.8
2018-07-30T00:02:32.199Z,95515.6
2018-07-30T00:03:34.379Z,95519.5
2018-07-30T00:04:36.826Z,95515.1
2018-07-30T00:05:39.010Z,95515
2018-07-30T00:06:41.459Z,95514.5
2018-07-30T00:07:43.605Z,95517.5
2018-07-30T00:08:45.780Z,95517.1
2018-07-30T00:09:48.226Z,95516.5
2018-07-30T00:10:50.679Z,95519.9
2018-07-30T00:11:52.858Z,95516
2018-07-30T00:12:55.029Z,95515.5
2018-07-30T00:13:57.486Z,95520.6
2018-07-30T00:14:59.943Z,95520.7
2018-07-30T00:16:02.117Z,95519.9
2018-07-30T00:17:04.271Z,95517.2
2018-07-30T00:18:06.452Z,95519.6
2018-07-30T00:19:08.616Z,95522.4
2018-07-30T00:20:10.797Z,95524.4
2018-07-30T00:21:12.710Z,95527.5
2018-07-30T00:22:15.146Z,95524.7
2018-07-30T00:23:17.594Z,95532.1
2018-07-30T00:24:20.042Z,95526.8
2018-07-30T00:25:22.229Z,95529.4
2018-07-30T00:26:24.672Z,95531.2
2018-07-30T00:27:26.857Z,95526.9
2018-07-30T00:28:28.766Z,95531.8
2018-07-30T00:29:30.946Z,95529.3
2018-07-30T00:30:32.862Z,95528.8
2018-07-30T00:31:35.029Z,95533.6
2018-07-30T00:32:37.475Z,95536
2018-07-30T00:33:39.936Z,95532.8
2018-07-30T00:34:42.126Z,95534.5
2018-07-30T00:35:44.314Z,95534.6
2018-07-30T00:36:46.494Z,95534.4
2018-07-30T00:37:48.942Z,95533.8
2018-07-30T00:38:50.824Z,95532.2
2018-07-30T00:39:52.747Z,95534.4
2018-07-30T00:40:54.902Z,95530.5
2018-07-30T00:41:57.058Z,95535.1
2018-07-30T00:42:58.982Z,95534.3
2018-07-30T00:44:01.156Z,95534
2018-07-30T00:45:03.078Z,95534
2018-07-30T00:46:05.217Z,95533.6
2018-07-30T00:47:07.658Z,95536
2018-07-30T00:48:09.908Z,95532.1
2018-07-30T00:49:12.394Z,95529.9
2018-07-30T00:50:14.847Z,95530
2018-07-30T00:51:17.306Z,95536.8
2018-07-30T00:52:19.506Z,95533.1
2018-07-30T00:53:21.691Z,95534.1
2018-07-30T00:54:23.867Z,95536.6
2018-07-30T00:55:26.044Z,95539
2018-07-30T00:56:28.492Z,95538.1
2018-07-30T00:57:30.671Z,95539.3
2018-07-30T00:58:33.128Z,95541.7
2018-07-30T00:59:35.580Z,95544.4
2018-07-30T01:00:37.752Z,95540.9
2018-07-30T01:01:39.929Z,95542.5
2018-07-30T01:02:42.423Z,95544.2
2018-07-30T01:03:44.855Z,95542.9
2018-07-30T01:04:47.034Z,95545.7
2018-07-30T01:05:48.917Z,95545.8
2018-07-30T01:06:51.370Z,95545.2
2018-07-30T01:07:53.572Z,95549.1
2018-07-30T01:08:56.039Z,95549.2
2018-07-30T01:09:58.185Z,95546.9
2018-07-30T01:11:00.632Z,95545.8
2018-07-30T01:12:03.073Z,95546.3
2018-07-30T01:13:05.532Z,95545.6
2018-07-30T01:14:07.724Z,95546.9
2018-07-30T01:15:09.899Z,95545.8
2018-07-30T01:16:12.050Z,95544.5
2018-07-30T01:17:14.502Z,95549.7
2018-07-30T01:18:16.431Z,95545.6
2018-07-30T01:19:18.872Z,95551.4
2018-07-30T01:20:20.497Z,95547.3
2018-07-30T01:21:22.955Z,95550.3
2018-07-30T01:22:25.125Z,95550.7
2018-07-30T01:23:27.593Z,95552.2
2018-07-30T01:24:29.765Z,95551.4
2018-07-30T01:25:31.925Z,95550.8
2018-07-30T01:26:34.090Z,95550.1
2018-07-30T01:27:36.532Z,95552.7
2018-07-30T01:28:38.991Z,95550.2
2018-07-30T01:29:41.165Z,95553.2
2018-07-30T01:30:43.607Z,95552.8
2018-07-30T01:31:46.077Z,95556.9
2018-07-30T01:32:47.983Z,95553.5
2018-07-30T01:33:50.432Z,95557.2
2018-07-30T01:34:52.316Z,95555.8
2018-07-30T01:35:54.465Z,95558.6
2018-07-30T01:36:56.911Z,95554.3
2018-07-30T01:37:59.094Z,95551.3
2018-07-30T01:39:01.280Z,95554.1
2018-07-30T01:40:03.459Z,95549.9
2018-07-30T01:41:05.907Z,95548.9
2018-07-30T01:42:08.065Z,95550.6
2018-07-30T01:43:10.247Z,95549.7
2018-07-30T01:44:12.147Z,95549.7
2018-07-30T01:45:14.614Z,95549.9
2018-07-30T01:46:16.798Z,95547.1
2018-07-30T01:47:18.978Z,95549.5
2018-07-30T01:48:21.436Z,95547.9
2018-07-30T01:49:23.884Z,95546.8
2018-07-30T01:50:26.347Z,95547
2018-07-30T01:51:28.785Z,95546.7
2018-07-30T01:52:30.981Z,95549.6
2018-07-30T01:53:33.437Z,95549.8
2018-07-30T01:54:35.880Z,95547.7
2018-07-30T01:55:38.029Z,95547.9
2018-07-30T01:56:39.648Z,95548.4
2018-07-30T01:57:42.104Z,95549
2018-07-30T01:58:44.543Z,95548.9
2018-07-30T01:59:46.987Z,95545.2
2018-07-30T02:00:49.127Z,95545.3
2018-07-30T02:01:51.314Z,95549.3
2018-07-30T02:02:53.495Z,95549.3
2018-07-30T02:03:55.939Z,95551
2018-07-30T02:04:58.392Z,95548.1
2018-07-30T02:06:00.610Z,95544.7
2018-07-30T02:07:02.526Z,95545.9
2018-07-30T02:08:04.696Z,95544.7
2018-07-30T02:09:06.888Z,95543.8
2018-07-30T02:10:08.798Z,95545
2018-07-30T02:11:11.256Z,95548.1
2018-07-30T02:12:13.699Z,95544.2
2018-07-30T02:13:16.159Z,95543.6
2018-07-30T02:14:18.305Z,95548.7
2018-07-30T02:15:19.932Z,95544.3
2018-07-30T02:16:22.100Z,95541.6
2018-07-30T02:17:24.275Z,95541.6
2018-07-30T02:18:26.471Z,95539.8
2018-07-30T02:19:28.932Z,95539.4
2018-07-30T02:20:31.097Z,95545.8
2018-07-30T02:21:33.251Z,95545.7
2018-07-30T02:22:35.638Z,95542.1
2018-07-30T02:23:38.086Z,95543
2018-07-30T02:24:40.257Z,95542
2018-07-30T02:25:41.606Z,95538.6
2018-07-30T02:26:44.058Z,95540.2
2018-07-30T02:27:46.528Z,95539.7
2018-07-30T02:28:48.710Z,95540
2018-07-30T02:29:50.865Z,95539
2018-07-30T02:30:52.786Z,95536.1
2018-07-30T02:31:54.921Z,95541.4
2018-07-30T02:32:56.808Z,95542.8
2018-07-30T02:33:59.270Z,95541.4
2018-07-30T02:35:01.453Z,95543.8
2018-07-30T02:36:03.908Z,95546.9
2018-07-30T02:37:06.076Z,95542.8
2018-07-30T02:38:07.980Z,95550.7
2018-07-30T02:39:10.125Z,95544
2018-07-30T02:40:12.272Z,95547.1
2018-07-30T02:41:14.164Z,95549
2018-07-30T02:42:16.363Z,95550
2018-07-30T02:43:18.808Z,95551
2018-07-30T02:44:20.997Z,95549.4
2018-07-30T02:45:23.176Z,95552.8
2018-07-30T02:46:25.628Z,95551.3
2018-07-30T02:47:27.782Z,95548.9
2018-07-30T02:48:29.986Z,95556.2
2018-07-30T02:49:31.616Z,95558.6
2018-07-30T02:50:34.070Z,95558.1
2018-07-30T02:51:36.530Z,95564.2
2018-07-30T02:52:38.970Z,95560.6
2018-07-30T02:53:41.418Z,95561
2018-07-30T02:54:43.591Z,95561.1
2018-07-30T02:55:45.778Z,95560.3
2018-07-30T02:56:47.687Z,95564.5
2018-07-30T02:57:50.345Z,95566
2018-07-30T02:58:52.268Z,95566
2018-07-30T02:59:54.711Z,95566.7
2018-07-30T03:00:57.159Z,95564.8
2018-07-30T03:01:59.610Z,95567.7
2018-07-30T03:03:01.228Z,95566.7
2018-07-30T03:04:03.676Z,95565.5
2018-07-30T03:05:06.128Z,95568.1
2018-07-30T03:06:08.585Z,95567.1
2018-07-30T03:07:09.920Z,95563
2018-07-30T03:08:12.391Z,95561.6
2018-07-30T03:09:14.353Z,95563.8
2018-07-30T03:10:16.494Z,95567.3
2018-07-30T03:11:18.947Z,95564.7
2018-07-30T03:12:20.834Z,95569.8
2018-07-30T03:13:23.277Z,95566.4
2018-07-30T03:14:25.202Z,95567.2
2018-07-30T03:15:27.103Z,95566.2
2018-07-30T03:16:29.272Z,95569
2018-07-30T03:17:31.426Z,95568.3
2018-07-30T03:18:33.622Z,95564.7
2018-07-30T03:19:35.793Z,95565.4
2018-07-30T03:20:37.673Z,95563.6
2018-07-30T03:21:39.865Z,95563.2
2018-07-30T03:22:41.771Z,95564.2
2018-07-30T03:23:44.214Z,95566.7
2018-07-30T03:24:46.672Z,95566.1
2018-07-30T03:25:48.544Z,95565
2018-07-30T03:26:50.745Z,95571.5
2018-07-30T03:27:52.647Z,95571
2018-07-30T03:28:54.918Z,95569.7
2018-07-30T03:29:57.367Z,95572.5
2018-07-30T03:30:59.554Z,95577.7
2018-07-30T03:32:01.736Z,95567.4
2018-07-30T03:33:04.189Z,95571.8
2018-07-30T03:34:06.354Z,95577.2
2018-07-30T03:35:08.548Z,95576.9
2018-07-30T03:36:10.705Z,95573.7
2018-07-30T03:37:12.607Z,95581.4
2018-07-30T03:38:15.069Z,95581.5
2018-07-30T03:39:16.970Z,95577.4
2018-07-30T03:40:19.441Z,95584.4
2018-07-30T03:41:21.348Z,95585.3
2018-07-30T03:42:23.804Z,95582.8
2018-07-30T03:43:25.750Z,95588.2
2018-07-30T03:44:28.193Z,95586
2018-07-30T03:45:30.077Z,95586.6
2018-07-30T03:46:32.256Z,95586.3
2018-07-30T03:47:34.412Z,95588.8
2018-07-30T03:48:36.854Z,95586.2
2018-07-30T03:49:39.043Z,95583.5
2018-07-30T03:50:41.202Z,95582
2018-07-30T03:51:43.077Z,95579.3
2018-07-30T03:52:44.988Z,95582.4
2018-07-30T03:53:46.873Z,95582.5
2018-07-30T03:54:49.022Z,95584
2018-07-30T03:55:51.068Z,95582.5
2018-07-30T03:56:53.520Z,95583.1
2018-07-30T03:57:56.094Z,95579.8
2018-07-30T03:58:57.963Z,95582.9
2018-07-30T04:00:00.773Z,95583.5
2018-07-30T04:01:03.496Z,95584.2
2018-07-30T04:02:05.956Z,95584.4
2018-07-30T04:03:08.138Z,95588.1
2018-07-30T04:04:10.310Z,95588.1
2018-07-30T04:05:12.485Z,95588.9
2018-07-30T04:06:15.091Z,95585
2018-07-30T04:07:17.215Z,95586.1
2018-07-30T04:08:19.120Z,95587.5
2018-07-30T04:09:21.307Z,95591.9
2018-07-30T04:10:23.765Z,95590.3
2018-07-30T04:11:25.928Z,95591.5
2018-07-30T04:12:27.802Z,95586.9
2018-07-30T04:13:30.262Z,95590.5
2018-07-30T04:14:32.697Z,95588.9
2018-07-30T04:15:34.873Z,95586.8
2018-07-30T04:16:37.060Z,95589
2018-07-30T04:17:39.236Z,95590.1
2018-07-30T04:18:41.407Z,95589.9
2018-07-30T04:19:43.612Z,95586.6
2018-07-30T04:20:46.060Z,95585.3
2018-07-30T04:21:47.952Z,95586.4
2018-07-30T04:22:50.388Z,95588.8
2018-07-30T04:23:52.823Z,95591.1
2018-07-30T04:24:54.977Z,95589.7
2018-07-30T04:25:57.431Z,95590.4
2018-07-30T04:26:59.886Z,95585.6
2018-07-30T04:28:02.078Z,95588.2
2018-07-30T04:29:04.526Z,95587.8
2018-07-30T04:30:06.417Z,95589
2018-07-30T04:31:08.858Z,95588.5
2018-07-30T04:32:10.745Z,95590.3
2018-07-30T04:33:12.915Z,95589.8
2018-07-30T04:34:15.093Z,95591.4
2018-07-30T04:35:17.272Z,95592.2
2018-07-30T04:36:19.745Z,95585.3
2018-07-30T04:37:21.966Z,95588
2018-07-30T04:38:24.419Z,95587.6
2018-07-30T04:39:26.305Z,95589.8
2018-07-30T04:40:28.464Z,95592.2
2018-07-30T04:41:30.638Z,95587.9
2018-07-30T04:42:32.794Z,95595.7
2018-07-30T04:43:35.238Z,95596.3
2018-07-30T04:44:37.687Z,95597.6
2018-07-30T04:45:39.861Z,95596.6
2018-07-30T04:46:42.307Z,95594
2018-07-30T04:47:44.760Z,95596.3
2018-07-30T04:48:46.662Z,95595.7
2018-07-30T04:49:49.117Z,95591.1
2018-07-30T04:50:51.310Z,95594.5
2018-07-30T04:51:53.763Z,95595.3
2018-07-30T04:52:55.675Z,95594
2018-07-30T04:53:57.855Z,95596.5
2018-07-30T04:55:00.303Z,95594
2018-07-30T04:56:02.742Z,95597.8
2018-07-30T04:57:05.322Z,95600.9
2018-07-30T04:58:07.997Z,95600.9
2018-07-30T04:59:10.457Z,95600.1
2018-07-30T05:00:12.899Z,95600.3
2018-07-30T05:01:15.346Z,95599.7
2018-07-30T05:02:17.265Z,95600.5
2018-07-30T05:03:19.436Z,95599.8
2018-07-30T05:04:21.617Z,95597.7
2018-07-30T05:05:24.062Z,95601.2
2018-07-30T05:06:25.948Z,95594.6
2018-07-30T05:07:28.126Z,95596
2018-07-30T05:08:30.571Z,95599.7
2018-07-30T05:09:33.023Z,95597.4
2018-07-30T05:10:35.462Z,95600.3
2018-07-30T05:11:37.921Z,95598.2
2018-07-30T05:12:40.069Z,95600.2
2018-07-30T05:13:42.238Z,95602.5
2018-07-30T05:14:44.408Z,95598.3
2018-07-30T05:15:46.598Z,95595
2018-07-30T05:16:48.794Z,95600.1
2018-07-30T05:17:50.958Z,95600.9
2018-07-30T05:18:53.142Z,95600
2018-07-30T05:19:55.314Z,95598.4
2018-07-30T05:20:57.501Z,95599.9
2018-07-30T05:21:59.957Z,95600.8
2018-07-30T05:23:02.152Z,95594.2
2018-07-30T05:24:04.348Z,95597.5
2018-07-30T05:25:06.808Z,95598.9
2018-07-30T05:26:09.257Z,95597.1
2018-07-30T05:27:11.705Z,95600
2018-07-30T05:28:14.156Z,95603.9
2018-07-30T05:29:16.308Z,95601.2
2018-07-30T05:30:18.489Z,95602.9
2018-07-30T05:31:20.932Z,95601.7
2018-07-30T05:32:23.159Z,95602.2
2018-07-30T05:33:25.369Z,95600.9
2018-07-30T05:34:27.550Z,95602.5
2018-07-30T05:35:29.725Z,95603.4
2018-07-30T05:36:32.179Z,95602.2
2018-07-30T05:37:34.636Z,95601.1
2018-07-30T05:38:36.836Z,95598.2
2018-07-30T05:39:38.745Z,95603.3
2018-07-30T05:40:41.193Z,95605
2018-07-30T05:41:43.373Z,95604.9
2018-07-30T05:42:45.724Z,95602.1
2018-07-30T05:43:48.226Z,95603.9
2018-07-30T05:44:50.678Z,95606.9
2018-07-30T05:45:52.844Z,95606.5
2018-07-30T05:46:55.030Z,95604.8
2018-07-30T05:47:57.179Z,95605.9
2018-07-30T05:48:59.654Z,95607.4
2018-07-30T05:50:02.289Z,95607.8
2018-07-30T05:51:04.086Z,95607.2
2018-07-30T05:52:05.953Z,95604.4
2018-07-30T05:53:07.838Z,95604.9
2018-07-30T05:54:10.284Z,95603.1
2018-07-30T05:55:12.731Z,95604
2018-07-30T05:56:15.170Z,95607.6
2018-07-30T05:57:16.797Z,95605.6
2018-07-30T05:58:19.284Z,95608.4
2018-07-30T05:59:21.482Z,95609.7
2018-07-30T06:00:23.683Z,95610.1
2018-07-30T06:01:26.137Z,95606.9
2018-07-30T06:02:28.583Z,95607.6
2018-07-30T06:03:30.773Z,95606.7
2018-07-30T06:04:32.954Z,95608.9
2018-07-30T06:05:36.008Z,95613.5
2018-07-30T06:06:37.794Z,95619.7
2018-07-30T06:07:39.982Z,95612.2
2018-07-30T06:08:42.126Z,95612.2
2018-07-30T06:09:44.508Z,95617.1
2018-07-30T06:10:47.188Z,95615.8
2018-07-30T06:11:49.656Z,95612.4
2018-07-30T06:12:51.564Z,95615.3
2018-07-30T06:13:53.750Z,95612
2018-07-30T06:14:55.655Z,95616.3
2018-07-30T06:15:57.296Z,95610.9
2018-07-30T06:16:59.179Z,95615.4
2018-07-30T06:18:01.365Z,95616.7
2018-07-30T06:19:03.537Z,95616.6
2018-07-30T06:20:05.982Z,95618.6
2018-07-30T06:21:08.443Z,95621.8
2018-07-30T06:22:10.888Z,95619.9
2018-07-30T06:23:13.042Z,95624.8
2018-07-30T06:24:15.230Z,95627.1
2018-07-30T06:25:17.165Z,95628.9
2018-07-30T06:26:18.916Z,95628.4
2018-07-30T06:27:21.654Z,95627.7
2018-07-30T06:28:24.218Z,95629.4
2018-07-30T06:29:26.418Z,95633.3
2018-07-30T06:30:28.596Z,95630.9
2018-07-30T06:31:30.474Z,95634.3
2018-07-30T06:32:32.937Z,95631.5
2018-07-30T06:33:35.125Z,95632.7
2018-07-30T06:34:37.328Z,95639.7
2018-07-30T06:35:39.780Z,95635.3
2018-07-30T06:36:41.927Z,95636.8
2018-07-30T06:37:44.108Z,95636.3
2018-07-30T06:38:46.560Z,95639.3
2018-07-30T06:39:48.743Z,95635.6
2018-07-30T06:40:50.637Z,95638
2018-07-30T06:41:52.554Z,95639.9
2018-07-30T06:42:54.992Z,95646.9
2018-07-30T06:43:57.452Z,95645.8
2018-07-30T06:44:59.387Z,95648.8
2018-07-30T06:46:01.557Z,95648.8
2018-07-30T06:47:04.009Z,95653.5
2018-07-30T06:48:06.527Z,95653.2
2018-07-30T06:49:09.008Z,95656.9
2018-07-30T06:50:11.192Z,95652.7
2018-07-30T06:51:13.372Z,95653.6
2018-07-30T06:52:15.261Z,95654.6
2018-07-30T06:53:17.960Z,95655.1
2018-07-30T06:54:20.562Z,95652.3
2018-07-30T06:55:22.747Z,95656.1
2018-07-30T06:56:24.928Z,95656.4
2018-07-30T06:57:27.389Z,95656.6
2018-07-30T06:58:29.592Z,95658.3
2018-07-30T06:59:31.507Z,95657.5
2018-07-30T07:00:33.681Z,95660
2018-07-30T07:01:35.856Z,95658.3
2018-07-30T07:02:38.310Z,95658.6
2018-07-30T07:03:40.471Z,95657.6
2018-07-30T07:04:42.361Z,95659.8
2018-07-30T07:05:44.853Z,95657.9
2018-07-30T07:06:47.303Z,95661.9
2018-07-30T07:07:48.918Z,95659.3
2018-07-30T07:08:51.366Z,95661.8
2018-07-30T07:09:53.509Z,95662.1
2018-07-30T07:10:56.221Z,95666.7
2018-07-30T07:11:58.361Z,95665.1
2018-07-30T07:13:00.843Z,95662.9
2018-07-30T07:14:02.729Z,95662.5
2018-07-30T07:15:05.182Z,95665.6
2018-07-30T07:16:07.645Z,95667.3
2018-07-30T07:17:09.820Z,95666.9
2018-07-30T07:18:11.993Z,95667
2018-07-30T07:19:14.191Z,95667.8
2018-07-30T07:20:16.637Z,95662.8
2018-07-30T07:21:19.362Z,95667.9
2018-07-30T07:22:21.982Z,95666
2018-07-30T07:23:23.598Z,95671.6
2018-07-30T07:24:26.087Z,95666.3
2018-07-30T07:25:28.254Z,95663.7
2018-07-30T07:26:30.182Z,95665.3
2018-07-30T07:27:32.355Z,95667.3
2018-07-30T07:28:34.547Z,95667
2018-07-30T07:29:36.989Z,95667.1
2018-07-30T07:30:39.160Z,95668.2
2018-07-30T07:31:41.359Z,95667.5
2018-07-30T07:32:43.537Z,95665.5
2018-07-30T07:33:45.739Z,95661.9
2018-07-30T07:34:47.962Z,95656.5
2018-07-30T07:35:50.405Z,95663.9
2018-07-30T07:36:52.587Z,95662.4
2018-07-30T07:37:55.046Z,95662.3
2018-07-30T07:38:57.194Z,95659.9
2018-07-30T07:39:59.103Z,95662.7
2018-07-30T07:41:01.561Z,95661.2
2018-07-30T07:42:03.709Z,95662.2
2018-07-30T07:43:05.622Z,95664.2
2018-07-30T07:44:07.787Z,95662.5
2018-07-30T07:45:10.246Z,95662.3
2018-07-30T07:46:12.173Z,95670.3
2018-07-30T07:47:14.654Z,95664.5
2018-07-30T07:48:17.478Z,95666.2
2018-07-30T07:49:20.064Z,95667.3
2018-07-30T07:50:23.736Z,95663.1
2018-07-30T07:51:26.014Z,95660.9
2018-07-30T07:52:28.456Z,95665.8
2018-07-30T07:53:30.599Z,95666.8
2018-07-30T07:54:32.745Z,95667.4
2018-07-30T07:55:34.915Z,95666.8
2018-07-30T07:56:36.526Z,95671.4
2018-07-30T07:57:38.724Z,95666.5
2018-07-30T07:58:41.172Z,95663.1
2018-07-30T07:59:43.332Z,95668.1
2018-07-30T08:00:45.214Z,95664.9
2018-07-30T08:01:47.405Z,95664.8
2018-07-30T08:02:49.851Z,95660.7
2018-07-30T08:03:52.377Z,95664.5
2018-07-30T08:04:54.613Z,95666.5
2018-07-30T08:05:57.067Z,95667.3
2018-07-30T08:06:58.991Z,95670.8
2018-07-30T08:08:01.158Z,95669.2
2018-07-30T08:09:03.380Z,95666.8
2018-07-30T08:10:05.529Z,95665.3
2018-07-30T08:11:08.237Z,95666.3
2018-07-30T08:12:10.710Z,95666.8
2018-07-30T08:13:13.190Z,95665
2018-07-30T08:14:15.123Z,95664.5
2018-07-30T08:15:16.738Z,95663
2018-07-30T08:16:19.493Z,95664.3
2018-07-30T08:17:22.081Z,95663.4
2018-07-30T08:18:24.250Z,95667
2018-07-30T08:19:26.725Z,95663.4
2018-07-30T08:20:28.895Z,95672.1
2018-07-30T08:21:31.081Z,95664.9
2018-07-30T08:22:33.526Z,95663.5
2018-07-30T08:23:35.724Z,95665.8
2018-07-30T08:24:38.191Z,95664.3
2018-07-30T08:25:40.427Z,95666
2018-07-30T08:26:42.611Z,95660.8
2018-07-30T08:27:45.082Z,95665.1
2018-07-30T08:28:47.266Z,95665.1
2018-07-30T08:29:49.461Z,95664.2
2018-07-30T08:30:51.917Z,95659.9
2018-07-30T08:31:54.363Z,95659.6
2018-07-30T08:32:56.994Z,95659
2018-07-30T08:33:59.490Z,95658.6
2018-07-30T08:35:01.934Z,95659.1
2018-07-30T08:36:03.579Z,95654.7
2018-07-30T08:37:05.772Z,95660.8
2018-07-30T08:38:07.958Z,95656.7
2018-07-30T08:39:09.851Z,95656.8
2018-07-30T08:40:11.499Z,95653.9
2018-07-30T08:41:13.369Z,95656.9
2018-07-30T08:42:15.673Z,95657.3
2018-07-30T08:43:17.951Z,95656
2018-07-30T08:44:19.859Z,95661.1
2018-07-30T08:45:22.304Z,95663
2018-07-30T08:46:24.498Z,95659.2
2018-07-30T08:47:26.680Z,95656.9
2018-07-30T08:48:29.131Z,95659
2018-07-30T08:49:31.043Z,95661.2
2018-07-30T08:50:33.496Z,95663.3
2018-07-30T08:51:35.690Z,95663.7
2018-07-30T08:52:37.876Z,95659.5
2018-07-30T08:53:40.059Z,95663
2018-07-30T08:54:41.969Z,95659.7
2018-07-30T08:55:44.158Z,95663.2
2018-07-30T08:56:46.597Z,95662.9
2018-07-30T08:57:49.065Z,95660.7
2018-07-30T08:58:51.222Z,95661.4
2018-07-30T08:59:53.417Z,95666.3
2018-07-30T09:00:55.596Z,95664.8
2018-07-30T09:01:58.037Z,95668
2018-07-30T09:03:00.496Z,95664.1
2018-07-30T09:04:02.660Z,95664.4
2018-07-30T09:05:04.828Z,95664.5
2018-07-30T09:06:06.750Z,95661
2018-07-30T09:07:09.329Z,95662.7
2018-07-30T09:08:11.253Z,95664.5
2018-07-30T09:09:13.436Z,95662.7
2018-07-30T09:10:15.895Z,95661.4
2018-07-30T09:11:18.085Z,95664.6
2018-07-30T09:12:20.443Z,95660.5
2018-07-30T09:13:22.599Z,95664.4
2018-07-30T09:14:24.792Z,95659.4
2018-07-30T09:15:26.985Z,95663.9
2018-07-30T09:16:29.161Z,95656.6
2018-07-30T09:17:31.625Z,95663
2018-07-30T09:18:33.529Z,95659.1
2018-07-30T09:19:35.985Z,95661.1
2018-07-30T09:20:38.425Z,95656.3
2018-07-30T09:21:40.874Z,95656.5
2018-07-30T09:22:43.326Z,95655.9
2018-07-30T09:23:45.249Z,95658.1
2018-07-30T09:24:46.863Z,95656.4
2018-07-30T09:25:49.047Z,95654.6
2018-07-30T09:26:51.411Z,95655.6
2018-07-30T09:27:53.931Z,95652.9
2018-07-30T09:28:56.123Z,95653.4
2018-07-30T09:29:58.587Z,95654
2018-07-30T09:31:01.044Z,95656
2018-07-30T09:32:03.492Z,95650.4
2018-07-30T09:33:05.934Z,95652.8
2018-07-30T09:34:08.633Z,95653.4
2018-07-30T09:35:10.837Z,95652.6
2018-07-30T09:36:13.313Z,95648
2018-07-30T09:37:15.766Z,95650.1
2018-07-30T09:38:17.959Z,95649.2
2018-07-30T09:39:20.509Z,95648.5
2018-07-30T09:40:23.152Z,95650.1
2018-07-30T09:41:25.593Z,95651.2
2018-07-30T09:42:28.040Z,95652.3
2018-07-30T09:43:30.489Z,95653.1
2018-07-30T09:44:33.253Z,95650
2018-07-30T09:45:35.157Z,95651.5
2018-07-30T09:46:37.606Z,95650.5
2018-07-30T09:47:40.049Z,95651.8
2018-07-30T09:48:42.192Z,95647.5
2018-07-30T09:49:44.385Z,95646.7
2018-07-30T09:50:46.574Z,95646.6
2018-07-30T09:51:49.022Z,95645.6
2018-07-30T09:52:51.199Z,95644.1
2018-07-30T09:53:53.700Z,95647
2018-07-30T09:54:55.600Z,95641.9
2018-07-30T09:55:57.766Z,95644.2
2018-07-30T09:56:59.974Z,95644.8
2018-07-30T09:58:02.126Z,95647.1
2018-07-30T09:59:04.318Z,95639.8
2018-07-30T10:00:06.762Z,95641.8
2018-07-30T10:01:09.268Z,95643.8
2018-07-30T10:02:11.716Z,95641.9
2018-07-30T10:03:13.907Z,95639.6
2018-07-30T10:04:16.068Z,95642.1
2018-07-30T10:05:18.247Z,95638.8
2018-07-30T10:06:21.186Z,95636.8
2018-07-30T10:07:23.675Z,95637
2018-07-30T10:08:26.107Z,95639.1
2018-07-30T10:09:28.560Z,95640.9
2018-07-30T10:10:31.012Z,95635.9
2018-07-30T10:11:33.554Z,95639.4
2018-07-30T10:12:35.515Z,95638.9
2018-07-30T10:13:37.967Z,95639.1
2018-07-30T10:14:39.885Z,95639
2018-07-30T10:15:42.336Z,95642.1
2018-07-30T10:16:44.499Z,95640.2
2018-07-30T10:17:47.327Z,95637.2
2018-07-30T10:18:49.213Z,95636.9
2018-07-30T10:19:51.397Z,95635.6
2018-07-30T10:20:53.314Z,95633.8
2018-07-30T10:21:55.492Z,95637.3
2018-07-30T10:22:57.942Z,95639.4
2018-07-30T10:24:00.096Z,95637.7
2018-07-30T10:25:02.548Z,95637.7
2018-07-30T10:26:04.988Z,95638
2018-07-30T10:27:07.176Z,95640.8
2018-07-30T10:28:09.335Z,95638.5
2018-07-30T10:29:11.523Z,95640.4
2018-07-30T10:30:13.771Z,95639
2018-07-30T10:31:15.946Z,95636.3
2018-07-30T10:32:18.397Z,95633.8
2018-07-30T10:33:20.559Z,95635
2018-07-30T10:34:22.791Z,95635.9
2018-07-30T10:35:25.274Z,95633.8
2018-07-30T10:36:27.440Z,95632.5
2018-07-30T10:37:29.909Z,95632.5
2018-07-30T10:38:32.361Z,95634.8
2018-07-30T10:39:34.536Z,95637.6
2018-07-30T10:40:36.988Z,95630.3
2018-07-30T10:41:39.179Z,95631
2018-07-30T10:42:41.626Z,95634
2018-07-30T10:43:43.820Z,95631.9
2018-07-30T10:44:45.987Z,95631.2
2018-07-30T10:45:47.869Z,95632.5
2018-07-30T10:46:50.328Z,95627.3
2018-07-30T10:47:51.910Z,95632.7
2018-07-30T10:48:54.064Z,95635.3
2018-07-30T10:49:56.539Z,95630.5
2018-07-30T10:50:58.713Z,95633.5
2018-07-30T10:52:01.155Z,95631.4
2018-07-30T10:53:03.075Z,95630.4
2018-07-30T10:54:05.517Z,95628.3
2018-07-30T10:55:07.710Z,95632.6
2018-07-30T10:56:10.157Z,95631.7
2018-07-30T10:57:12.341Z,95629.6
2018-07-30T10:58:14.785Z,95634.2
2018-07-30T10:59:16.976Z,95638.5
2018-07-30T11:00:19.147Z,95635.1
2018-07-30T11:01:21.595Z,95635.5
2018-07-30T11:02:24.049Z,95635.2
2018-07-30T11:03:26.506Z,95630.4
2018-07-30T11:04:28.435Z,95625.2
2018-07-30T11:05:30.378Z,95626.4
2018-07-30T11:06:32.568Z,95624.5
2018-07-30T11:07:35.020Z,95622.2
2018-07-30T11:08:37.477Z,95626.7
2018-07-30T11:09:39.258Z,95623.8
2018-07-30T11:10:41.841Z,95625
2018-07-30T11:11:43.985Z,95625.4
2018-07-30T11:12:46.442Z,95626.5
2018-07-30T11:13:48.907Z,95629.4
2018-07-30T11:14:51.077Z,95627.1
2018-07-30T11:15:53.630Z,95627
2018-07-30T11:16:55.799Z,95623.7
2018-07-30T11:17:57.992Z,95624.2
2018-07-30T11:18:59.868Z,95623.6
2018-07-30T11:20:02.353Z,95623.4
2018-07-30T11:21:04.569Z,95621.1
2018-07-30T11:22:07.017Z,95621.8
2018-07-30T11:23:09.465Z,95621.1
2018-07-30T11:24:11.656Z,95624.5
2018-07-30T11:25:14.155Z,95621.7
2018-07-30T11:26:16.630Z,95619.7
2018-07-30T11:27:18.801Z,95624.2
2018-07-30T11:28:21.219Z,95618.9
2018-07-30T11:29:23.708Z,95619.4
2018-07-30T11:30:26.157Z,95619.4
2018-07-30T11:31:28.345Z,95621.6
2018-07-30T11:32:30.527Z,95627.1
2018-07-30T11:33:32.534Z,95625.8
2018-07-30T11:34:35.093Z,95620.7
2018-07-30T11:35:37.552Z,95618.3
2018-07-30T11:36:39.993Z,95620.7
2018-07-30T11:37:41.931Z,95616.7
2018-07-30T11:38:44.444Z,95619.2
2018-07-30T11:39:46.929Z,95617.7
2018-07-30T11:40:49.129Z,95612.4
2018-07-30T11:41:51.308Z,95613.5
2018-07-30T11:42:53.670Z,95614.5
2018-07-30T11:43:56.277Z,95615.5
2018-07-30T11:44:58.739Z,95611.5
2018-07-30T11:46:00.945Z,95611.2
2018-07-30T11:47:03.411Z,95611.3
2018-07-30T11:48:05.561Z,95615.5
2018-07-30T11:49:07.448Z,95614.4
2018-07-30T11:50:09.915Z,95609.2
2018-07-30T11:51:12.088Z,95608.2
2018-07-30T11:52:14.537Z,95612.8
2018-07-30T11:53:16.752Z,95611.9
2018-07-30T11:54:19.090Z,95608.1
2018-07-30T11:55:21.589Z,95610.5
2018-07-30T11:56:23.503Z,95605.4
2018-07-30T11:57:25.675Z,95607.5
2018-07-30T11:58:28.134Z,95604.3
2018-07-30T11:59:30.326Z,95604.8
2018-07-30T12:00:32.519Z,95607
2018-07-30T12:01:34.969Z,95606.1
2018-07-30T12:02:37.156Z,95602.7
2018-07-30T12:03:39.317Z,95601.9
2018-07-30T12:04:41.763Z,95598.7
2018-07-30T12:05:44.217Z,95601.3
2018-07-30T12:06:46.478Z,95603.2
2018-07-30T12:07:49.007Z,95602.9
2018-07-30T12:08:51.844Z,95601
2018-07-30T12:09:54.391Z,95601.2
2018-07-30T12:10:56.839Z,95605.4
2018-07-30T12:11:59.023Z,95600.1
2018-07-30T12:13:01.200Z,95597.2
2018-07-30T12:14:03.643Z,95600.8
2018-07-30T12:15:05.279Z,95598.8
2018-07-30T12:16:07.170Z,95599.2
2018-07-30T12:17:09.347Z,95600.5
2018-07-30T12:18:10.977Z,95595.5
2018-07-30T12:19:13.133Z,95595.6
2018-07-30T12:20:15.582Z,95596.5
2018-07-30T12:21:18.087Z,95596.1
2018-07-30T12:22:19.968Z,95594.6
2018-07-30T12:23:21.884Z,95591.8
2018-07-30T12:24:23.788Z,95592
2018-07-30T12:25:25.688Z,95590.8
2018-07-30T12:26:28.147Z,95592.9
2018-07-30T12:27:30.653Z,95591.3
2018-07-30T12:28:33.112Z,95587.5
2018-07-30T12:29:35.547Z,95590.2
2018-07-30T12:30:38.375Z,95590.7
2018-07-30T12:31:40.678Z,95591.4
2018-07-30T12:32:42.551Z,95590.5
2018-07-30T12:33:44.997Z,95588.8
2018-07-30T12:34:47.440Z,95587.9
2018-07-30T12:35:49.623Z,95589
2018-07-30T12:36:51.505Z,95584.9
2018-07-30T12:37:53.694Z,95584.4